Cathlamet, WA

10:00 PM PDT on September 03, 2015 (GMT -0700)
Cathlamet 98612 | | Change Station
CLOSE
Current Station
Personal Weather Station
Location: Cathlamet, WA
Elevation: 154 ft
Nearby Weather Stations

Elev 154 ft 46.20 °N, 123.38 °W | Updated 2 minutes ago

Clear
Clear
51.4 °F
Feels Like 51.4 °F
N
1.7
Wind Variable Wind from East

Today
High -- | Low -- °F
--% Chance of Precip.
Yesterday
High -- | Low -- °F
Precip. -- in
6:36 AM 7:48 PM
Waning Gibbous, 63% visible
Pressure 29.99 in
Visibility 10.0 miles
Clouds Clear
Dew Point 51 °F
Humidity 97%
Rainfall 0.10 in
Snow Depth Not available.
UV 0 out of 12
Pollen .90 out of 12
Air Quality Not available.
Flu Activity Not available.
METAR KAST 040455Z AUTO 15003KT 10SM CLR 12/11 A2999 RMK AO2 SLP156 T01170106
Pressure 29.99 in
Visibility 10.0 miles
Clouds Clear
Dew Point 51 °F
Humidity 97%
Rainfall 0.10 in
Snow Depth Not available.
UV 0 out of 12
Pollen .90 out of 12
Air Quality Not available.
Flu Activity Not available.
METAR KAST 040455Z AUTO 15003KT 10SM CLR 12/11 A2999 RMK AO2 SLP156 T01170106

10-Day Weather Forecast

×

Almanac

Astronomy

Sep. 03, 2015 Rise Set
Actual Time
Civil Twilight
Nautical Twilight
Astronomical Twilight
Moon
Length of Visible Light
Length of Day
Tomorrow will be .
, % of the Moon is Illuminated

Today's Extremes

State Highs State Lows

Community

WunderPhotos

Upload Photos

1,852,129 photos uploaded!

WunderBlogs® & News

Nearby

Air Quality

  Air Quality AQ Index Pollutant
Not available.

Snow Depth

Station Depth Elevation

Earthquake Activity

City Distance Mag. Time & Date
Minimum magnitude displayed is 2.5.

Coastal Water Temperatures

Place Temperature

Stations

Nearby Weather Stations

Station Location Temp. Windchill Dew Point Humidity Wind Precip. Elev Updated Type